Delmar, NY (12054)

3:55 PM EDT on March 29, 2015 (GMT -0400)
Delmar | | Change Station
CLOSE
Current Station
Personal Weather Station
Location: Delmar, NY
Elevation: 226 ft
Nearby Weather Stations

Elev 226 ft 42.61 °N, 73.86 °W | Updated 1 minute ago

Clear
Clear
43.3 °F
Feels Like 43 °F
N
1.8
Wind Variable Wind from NNE
Gusts 2.5 mph

Today
High -- | Low -- °F
--% Chance of Precip.
Yesterday
High -- | Low -- °F
Precip. -- in
6:43 AM 7:17 PM
Waxing Gibbous, 74% visible
Pressure 30.16 in
Visibility 10.0 miles
Clouds Few 25000 ft
Windchill 43 °F
Dew Point 8 °F
Humidity 23%
Rainfall 0.00 in
Snow Depth Not available.
UV 4.0 out of 12
Pollen 3.50 out of 12
Air Quality Not available.
Flu Activity Not available.
METAR KALB 291951Z VRB06KT 10SM FEW250 06/M14 A3015 RMK AO2 SLP212 T00561139

More Conditions Fewer Conditions

Pressure 30.16 in
Visibility 10.0 miles
Clouds Few 25000 ft
Windchill 43 °F
Dew Point 8 °F
Humidity 23%
Rainfall 0.00 in
Snow Depth Not available.
UV 4.0 out of 12
Pollen 3.50 out of 12
Air Quality Not available.
Flu Activity Not available.
METAR KALB 291951Z VRB06KT 10SM FEW250 06/M14 A3015 RMK AO2 SLP212 T00561139

More Conditions Fewer Conditions

10-Day Weather Forecast

Almanac

Astronomy

Mar. 29, 2015 Rise Set
Actual Time
Civil Twilight
Nautical Twilight
Astronomical Twilight
Moon
Length of Visible Light
Length of Day
Tomorrow will be .
, % of the Moon is Illuminated

Today's Extremes

State Highs State Lows

Community

WunderPhotos

Upload Photos

1,809,339 photos uploaded!

WunderBlogs® & News

Nearby

Air Quality

  Air Quality AQ Index Pollutant
Not available.

Snow Depth

Station Depth Elevation

Earthquake Activity

City Distance Mag. Time & Date
Minimum magnitude displayed is 2.5.

Coastal Water Temperatures

Place Temperature

Stations

Nearby Weather Stations

Station Location Temp. Windchill Dew Point Humidity Wind Precip. Elev Updated Type